createdAt,value
2023-09-08T00:01:00.320Z,101765.56
2023-09-08T00:03:27.956Z,101767.22
2023-09-08T00:05:55.557Z,101774.59
2023-09-08T00:08:25.011Z,101771.53
2023-09-08T00:10:52.644Z,101774.63
2023-09-08T00:13:22.052Z,101772.03
2023-09-08T00:15:49.664Z,101769.31
2023-09-08T00:18:17.298Z,101771.19
2023-09-08T00:20:44.912Z,101767.91
2023-09-08T00:23:12.565Z,101766.72
2023-09-08T00:25:40.281Z,101762.16
2023-09-08T00:28:07.999Z,101761.09
2023-09-08T00:30:36.978Z,101757.00
2023-09-08T00:33:05.118Z,101754.50
2023-09-08T00:35:32.797Z,101754.03
2023-09-08T00:38:00.443Z,101757.13
2023-09-08T00:40:28.907Z,101750.88
2023-09-08T00:42:56.541Z,101751.66
2023-09-08T00:45:25.022Z,101746.03
2023-09-08T00:47:55.018Z,101748.97
2023-09-08T00:50:23.035Z,101748.03
2023-09-08T00:52:51.125Z,101738.63
2023-09-08T00:55:19.811Z,101737.22
2023-09-08T00:57:47.478Z,101733.78
2023-09-08T01:00:16.149Z,101737.78
2023-09-08T01:02:46.188Z,101733.41
2023-09-08T01:05:15.861Z,101733.56
2023-09-08T01:07:44.265Z,101730.84
2023-09-08T01:10:12.662Z,101732.75
2023-09-08T01:12:41.204Z,101733.56
2023-09-08T01:15:09.720Z,101735.22
2023-09-08T01:17:37.677Z,101731.91
2023-09-08T01:20:09.266Z,101735.66
2023-09-08T01:22:52.997Z,101736.28
2023-09-08T01:25:24.025Z,101736.13
2023-09-08T01:27:53.892Z,101735.44
2023-09-08T01:30:23.771Z,101743.31
2023-09-08T01:32:52.385Z,101734.97
2023-09-08T01:35:20.482Z,101737.06
2023-09-08T01:37:49.509Z,101737.91
2023-09-08T01:40:19.820Z,101732.84
2023-09-08T01:42:50.020Z,101724.16
2023-09-08T01:45:17.709Z,101724.63
2023-09-08T01:47:45.378Z,101722.84
2023-09-08T01:50:12.985Z,101723.91
2023-09-08T01:52:40.866Z,101716.84
2023-09-08T01:55:09.547Z,101716.84
2023-09-08T01:57:37.241Z,101715.44
2023-09-08T02:00:07.719Z,101716.84
2023-09-08T02:02:40.293Z,101722.50
2023-09-08T02:05:09.175Z,101720.00
2023-09-08T02:07:37.045Z,101717.81
2023-09-08T02:10:04.958Z,101712.25
2023-09-08T02:12:32.627Z,101716.03
2023-09-08T02:15:01.076Z,101711.31
2023-09-08T02:17:30.484Z,101709.88
2023-09-08T02:19:58.184Z,101711.28
2023-09-08T02:22:25.826Z,101708.91
2023-09-08T02:24:53.727Z,101704.53
2023-09-08T02:27:21.635Z,101714.84
2023-09-08T02:29:50.850Z,101722.09
2023-09-08T02:32:18.540Z,101715.03
2023-09-08T02:34:49.665Z,101715.88
2023-09-08T02:37:19.309Z,101709.16
2023-09-08T02:39:47.026Z,101721.53
2023-09-08T02:42:14.704Z,101717.16
2023-09-08T02:44:42.678Z,101709.81
2023-09-08T02:47:11.168Z,101709.97
2023-09-08T02:49:40.348Z,101710.94
2023-09-08T02:52:09.333Z,101710.94
2023-09-08T02:54:37.020Z,101711.75
2023-09-08T02:57:05.203Z,101718.44
2023-09-08T02:59:32.889Z,101709.75
2023-09-08T03:02:02.214Z,101713.78
2023-09-08T03:04:29.988Z,101707.41
2023-09-08T03:06:57.974Z,101699.66
2023-09-08T03:09:27.003Z,101706.00
2023-09-08T03:11:54.722Z,101708.94
2023-09-08T03:14:22.404Z,101706.66
2023-09-08T03:16:50.064Z,101700.06
2023-09-08T03:19:17.748Z,101697.31
2023-09-08T03:21:45.967Z,101696.91
2023-09-08T03:24:13.650Z,101696.41
2023-09-08T03:26:42.691Z,101694.97
2023-09-08T03:29:10.317Z,101693.31
2023-09-08T03:31:38.152Z,101692.00
2023-09-08T03:34:06.104Z,101687.16
2023-09-08T03:36:36.972Z,101685.38
2023-09-08T03:39:05.455Z,101688.66
2023-09-08T03:41:33.114Z,101682.88
2023-09-08T03:44:02.473Z,101681.84
2023-09-08T03:46:30.161Z,101677.94
2023-09-08T03:49:01.814Z,101676.31
2023-09-08T03:51:30.363Z,101678.38
2023-09-08T03:53:58.115Z,101677.34
2023-09-08T03:56:25.909Z,101675.81
2023-09-08T03:58:54.127Z,101681.22
2023-09-08T04:01:23.137Z,101674.56
2023-09-08T04:03:50.767Z,101670.28
2023-09-08T04:06:18.448Z,101672.09
2023-09-08T04:08:46.299Z,101666.50
2023-09-08T04:11:14.158Z,101673.75
2023-09-08T04:13:41.741Z,101668.75
2023-09-08T04:16:10.385Z,101665.22
2023-09-08T04:18:39.561Z,101665.44
2023-09-08T04:21:08.578Z,101662.38
2023-09-08T04:23:36.597Z,101663.56
2023-09-08T04:26:05.539Z,101661.75
2023-09-08T04:28:33.474Z,101662.22
2023-09-08T04:31:01.228Z,101656.03
2023-09-08T04:33:30.286Z,101658.34
2023-09-08T04:35:59.347Z,101646.66
2023-09-08T04:38:26.937Z,101650.63
2023-09-08T04:40:54.876Z,101643.97
2023-09-08T04:43:22.622Z,101645.31
2023-09-08T04:45:51.663Z,101642.47
2023-09-08T04:48:19.558Z,101641.91
2023-09-08T04:50:47.297Z,101633.84
2023-09-08T04:53:16.328Z,101629.06
2023-09-08T04:55:44.335Z,101626.72
2023-09-08T04:58:12.129Z,101629.34
2023-09-08T05:00:40.792Z,101632.19
2023-09-08T05:03:09.217Z,101637.72
2023-09-08T05:05:37.042Z,101634.78
2023-09-08T05:08:05.245Z,101634.50
2023-09-08T05:10:34.154Z,101637.19
2023-09-08T05:13:02.136Z,101636.88
2023-09-08T05:15:33.186Z,101635.84
2023-09-08T05:18:02.722Z,101638.88
2023-09-08T05:20:30.425Z,101635.06
2023-09-08T05:22:58.052Z,101633.69
2023-09-08T05:25:25.685Z,101633.81
2023-09-08T05:27:54.968Z,101636.63
2023-09-08T05:30:22.782Z,101645.47
2023-09-08T05:32:50.569Z,101636.44
2023-09-08T05:35:18.674Z,101639.09
2023-09-08T05:37:46.847Z,101633.09
2023-09-08T05:40:14.798Z,101638.03
2023-09-08T05:42:44.594Z,101634.03
2023-09-08T05:45:14.947Z,101638.06
2023-09-08T05:47:43.227Z,101627.03
2023-09-08T05:50:11.924Z,101624.44
2023-09-08T05:52:39.623Z,101625.38
2023-09-08T05:55:08.249Z,101621.75
2023-09-08T05:57:37.956Z,101619.50
2023-09-08T06:00:06.431Z,101621.88
2023-09-08T06:02:42.152Z,101620.22
2023-09-08T06:05:12.966Z,101627.03
2023-09-08T06:07:44.070Z,101619.03
2023-09-08T06:10:19.282Z,101628.41
2023-09-08T06:12:47.509Z,101629.25
2023-09-08T06:15:15.439Z,101641.47
2023-09-08T06:17:44.974Z,101638.28
2023-09-08T06:20:13.744Z,101637.97
2023-09-08T06:22:41.414Z,101640.78
2023-09-08T06:25:11.193Z,101639.34
2023-09-08T06:27:39.641Z,101636.84
2023-09-08T06:30:09.348Z,101640.81
2023-09-08T06:32:37.197Z,101636.09
2023-09-08T06:35:06.664Z,101638.06
2023-09-08T06:37:37.386Z,101634.66
2023-09-08T06:40:06.203Z,101642.66
2023-09-08T06:42:35.319Z,101634.34
2023-09-08T06:45:12.951Z,101629.97
2023-09-08T06:47:40.584Z,101633.66
2023-09-08T06:50:10.926Z,101630.59
2023-09-08T06:52:38.564Z,101630.22
2023-09-08T06:55:07.122Z,101631.94
2023-09-08T06:57:35.045Z,101634.81
2023-09-08T07:00:03.973Z,101632.19
2023-09-08T07:02:31.816Z,101627.75
2023-09-08T07:05:00.167Z,101627.09
2023-09-08T07:07:29.333Z,101620.19
2023-09-08T07:09:57.104Z,101621.31
2023-09-08T07:12:24.638Z,101624.13
2023-09-08T07:14:52.225Z,101623.91
2023-09-08T07:17:20.109Z,101621.59
2023-09-08T07:19:47.807Z,101632.06
2023-09-08T07:22:15.815Z,101634.09
2023-09-08T07:24:45.297Z,101632.34
2023-09-08T07:27:14.899Z,101623.69
2023-09-08T07:29:43.218Z,101619.72
2023-09-08T07:32:10.917Z,101624.97
2023-09-08T07:34:39.405Z,101622.38
2023-09-08T07:37:07.017Z,101631.44
2023-09-08T07:39:36.463Z,101630.97
2023-09-08T07:42:06.470Z,101636.53
2023-09-08T07:44:34.202Z,101636.97
2023-09-08T07:47:02.436Z,101631.38
2023-09-08T07:49:30.100Z,101627.94
2023-09-08T07:51:57.820Z,101634.03
2023-09-08T07:54:25.445Z,101624.38
2023-09-08T07:56:53.137Z,101628.56
2023-09-08T07:59:22.153Z,101634.88
2023-09-08T08:01:50.476Z,101630.06
2023-09-08T08:04:18.244Z,101636.16
2023-09-08T08:06:45.890Z,101634.59
2023-09-08T08:09:13.568Z,101640.09
2023-09-08T08:11:41.216Z,101642.63
2023-09-08T08:14:08.836Z,101644.00
2023-09-08T08:16:37.833Z,101634.00
2023-09-08T08:19:05.681Z,101637.56
2023-09-08T08:21:33.333Z,101635.66
2023-09-08T08:24:00.909Z,101631.63
2023-09-08T08:26:30.923Z,101634.38
2023-09-08T08:28:58.461Z,101625.69
2023-09-08T08:31:26.093Z,101627.34
2023-09-08T08:33:55.052Z,101632.25
2023-09-08T08:36:22.774Z,101630.63
2023-09-08T08:38:50.633Z,101630.09
2023-09-08T08:41:18.289Z,101629.56
2023-09-08T08:43:48.402Z,101629.03
2023-09-08T08:46:17.009Z,101624.66
2023-09-08T08:48:46.651Z,101623.88
2023-09-08T08:51:17.348Z,101623.63
2023-09-08T08:53:45.064Z,101628.00
2023-09-08T08:56:12.633Z,101623.91
2023-09-08T08:58:41.773Z,101627.44
2023-09-08T09:01:09.630Z,101620.06
2023-09-08T09:03:39.204Z,101621.44
2023-09-08T09:06:06.924Z,101619.50
2023-09-08T09:08:37.332Z,101614.31
2023-09-08T09:11:05.078Z,101616.50
2023-09-08T09:13:32.757Z,101611.53
2023-09-08T09:16:01.352Z,101612.91
2023-09-08T09:18:31.409Z,101605.53
2023-09-08T09:21:03.538Z,101610.09
2023-09-08T09:23:32.400Z,101607.56
2023-09-08T09:26:04.741Z,101600.97
2023-09-08T09:28:32.641Z,101600.13
2023-09-08T09:31:00.974Z,101597.09
2023-09-08T09:33:30.306Z,101599.25
2023-09-08T09:35:58.479Z,101599.25
2023-09-08T09:38:29.145Z,101603.84
2023-09-08T09:40:57.541Z,101599.44
2023-09-08T09:43:26.475Z,101596.97
2023-09-08T09:45:55.695Z,101605.66
2023-09-08T09:48:24.218Z,101596.56
2023-09-08T09:50:51.896Z,101587.47
2023-09-08T09:53:20.084Z,101585.16
2023-09-08T09:55:47.881Z,101586.19
2023-09-08T09:58:16.921Z,101588.88
2023-09-08T10:00:49.122Z,101580.16
2023-09-08T10:03:17.705Z,101583.91
2023-09-08T10:05:47.980Z,101578.31
2023-09-08T10:08:15.713Z,101578.25
2023-09-08T10:10:47.159Z,101579.19
2023-09-08T10:13:15.725Z,101574.19
2023-09-08T10:15:44.251Z,101572.19
2023-09-08T10:18:17.040Z,101576.13
2023-09-08T10:20:46.266Z,101571.88
2023-09-08T10:23:17.752Z,101576.84
2023-09-08T10:25:54.127Z,101566.16
2023-09-08T10:28:23.487Z,101562.75
2023-09-08T10:30:52.671Z,101560.41
2023-09-08T10:33:25.025Z,101558.22
2023-09-08T10:35:53.602Z,101558.63
2023-09-08T10:38:25.171Z,101560.72
2023-09-08T10:40:53.016Z,101554.78
2023-09-08T10:43:21.493Z,101556.56
2023-09-08T10:45:49.690Z,101554.81
2023-09-08T10:48:17.601Z,101550.59
2023-09-08T10:50:46.523Z,101546.56
2023-09-08T10:53:18.537Z,101543.22
2023-09-08T10:56:06.310Z,101542.72
2023-09-08T10:58:40.654Z,101551.19
2023-09-08T11:01:08.707Z,101548.88
2023-09-08T11:03:48.558Z,101541.91
2023-09-08T11:06:19.804Z,101550.06
2023-09-08T11:08:48.659Z,101543.56
2023-09-08T11:11:18.413Z,101545.38
2023-09-08T11:13:47.861Z,101551.00
2023-09-08T11:16:16.922Z,101549.72
2023-09-08T11:18:44.699Z,101547.09
2023-09-08T11:21:12.801Z,101545.66
2023-09-08T11:23:42.402Z,101547.19
2023-09-08T11:26:10.892Z,101542.19
2023-09-08T11:28:39.315Z,101542.50
2023-09-08T11:31:07.410Z,101539.63
2023-09-08T11:33:40.470Z,101534.47
2023-09-08T11:36:15.420Z,101533.25
2023-09-08T11:38:45.364Z,101527.88
2023-09-08T11:41:13.190Z,101527.13
2023-09-08T11:43:41.244Z,101527.75
2023-09-08T11:46:09.216Z,101522.03
2023-09-08T11:48:37.465Z,101523.59
2023-09-08T11:51:05.452Z,101522.63
2023-09-08T11:53:34.542Z,101522.97
2023-09-08T11:56:03.665Z,101529.09
2023-09-08T11:58:31.833Z,101521.91
2023-09-08T12:01:00.114Z,101528.00
2023-09-08T12:03:27.841Z,101527.06
2023-09-08T12:05:55.922Z,101524.03
2023-09-08T12:08:27.241Z,101526.56
2023-09-08T12:10:55.967Z,101526.47
2023-09-08T12:13:25.764Z,101521.13
2023-09-08T12:15:53.882Z,101527.13
2023-09-08T12:18:38.727Z,101525.63
2023-09-08T12:21:06.962Z,101531.78
2023-09-08T12:23:34.600Z,101521.91
2023-09-08T12:26:03.228Z,101517.56
2023-09-08T12:28:34.402Z,101516.88
2023-09-08T12:31:02.426Z,101516.56
2023-09-08T12:33:30.309Z,101511.75
2023-09-08T12:35:57.956Z,101513.31
2023-09-08T12:38:25.570Z,101509.09
2023-09-08T12:40:53.197Z,101516.53
2023-09-08T12:43:27.736Z,101505.19
2023-09-08T12:45:58.052Z,101499.75
2023-09-08T12:48:26.088Z,101495.06
2023-09-08T12:50:53.846Z,101498.09
2023-09-08T12:53:22.730Z,101489.31
2023-09-08T12:55:50.676Z,101489.69
2023-09-08T12:58:18.592Z,101490.28
2023-09-08T13:00:46.484Z,101489.94
2023-09-08T13:03:15.454Z,101491.53
2023-09-08T13:05:43.277Z,101483.13
2023-09-08T13:08:12.238Z,101472.81
2023-09-08T13:10:40.106Z,101474.31
2023-09-08T13:13:07.872Z,101470.88
2023-09-08T13:15:35.619Z,101479.63
2023-09-08T13:18:03.297Z,101478.75
2023-09-08T13:20:32.371Z,101473.75
2023-09-08T13:23:00.065Z,101468.88
2023-09-08T13:25:28.039Z,101470.06
2023-09-08T13:27:55.704Z,101473.28
2023-09-08T13:30:27.597Z,101468.31
2023-09-08T13:32:56.866Z,101464.13
2023-09-08T13:35:24.689Z,101458.13
2023-09-08T13:37:53.633Z,101465.38
2023-09-08T13:40:21.656Z,101453.75
2023-09-08T13:42:49.790Z,101454.84
2023-09-08T13:45:17.429Z,101449.69
2023-09-08T13:47:45.679Z,101448.22
2023-09-08T13:50:14.575Z,101445.28
2023-09-08T13:52:43.616Z,101438.38
2023-09-08T13:55:34.737Z,101442.44
2023-09-08T13:58:02.202Z,101434.16
2023-09-08T14:00:32.061Z,101434.97
2023-09-08T14:03:04.527Z,101439.66
2023-09-08T14:05:37.004Z,101435.78
2023-09-08T14:08:08.934Z,101429.47
2023-09-08T14:10:51.806Z,101429.84
2023-09-08T14:13:25.871Z,101431.13
2023-09-08T14:15:53.540Z,101426.78
2023-09-08T14:18:21.170Z,101422.44
2023-09-08T14:20:48.756Z,101428.28
2023-09-08T14:23:16.693Z,101422.44
2023-09-08T14:25:45.675Z,101419.97
2023-09-08T14:28:13.225Z,101402.97
2023-09-08T14:30:41.585Z,101413.66
2023-09-08T14:33:09.372Z,101414.13
2023-09-08T14:35:37.116Z,101413.03
2023-09-08T14:38:04.962Z,101409.78
2023-09-08T14:40:32.793Z,101406.19
2023-09-08T14:43:01.791Z,101407.81
2023-09-08T14:45:29.427Z,101406.19
2023-09-08T14:47:59.469Z,101408.78
2023-09-08T14:50:28.853Z,101403.91
2023-09-08T14:52:56.502Z,101403.63
2023-09-08T14:55:24.173Z,101398.41
2023-09-08T14:57:51.784Z,101404.06
2023-09-08T15:00:21.837Z,101394.84
2023-09-08T15:02:49.573Z,101400.84
2023-09-08T15:05:17.326Z,101395.19
2023-09-08T15:07:45.101Z,101402.31
2023-09-08T15:10:13.270Z,101397.59
2023-09-08T15:12:40.866Z,101399.03
2023-09-08T15:15:09.774Z,101403.09
2023-09-08T15:17:38.736Z,101400.84
2023-09-08T15:20:07.807Z,101393.22
2023-09-08T15:22:35.419Z,101391.38
2023-09-08T15:25:03.162Z,101386.22
2023-09-08T15:27:30.791Z,101384.47
2023-09-08T15:29:58.447Z,101386.84
2023-09-08T15:32:26.171Z,101386.84
2023-09-08T15:34:55.258Z,101385.22
2023-09-08T15:37:22.949Z,101387.63
2023-09-08T15:39:50.634Z,101391.53
2023-09-08T15:42:18.580Z,101389.88
2023-09-08T15:44:46.164Z,101391.63
2023-09-08T15:47:13.836Z,101384.00
2023-09-08T15:49:41.936Z,101381.75
2023-09-08T15:52:16.603Z,101383.88
2023-09-08T15:54:44.783Z,101388.25
2023-09-08T15:57:12.549Z,101381.91
2023-09-08T15:59:40.940Z,101378.63
2023-09-08T16:02:08.783Z,101380.38
2023-09-08T16:04:36.724Z,101380.66
2023-09-08T16:07:05.449Z,101378.25
2023-09-08T16:09:34.660Z,101384.38
2023-09-08T16:12:02.234Z,101368.38
2023-09-08T16:14:29.990Z,101377.25
2023-09-08T16:16:57.651Z,101372.91
2023-09-08T16:19:25.363Z,101372.25
2023-09-08T16:21:53.060Z,101372.06
2023-09-08T16:24:20.662Z,101366.88
2023-09-08T16:26:49.942Z,101372.50
2023-09-08T16:29:17.685Z,101366.19
2023-09-08T16:31:45.297Z,101368.47
2023-09-08T16:34:12.967Z,101366.00
2023-09-08T16:36:40.572Z,101360.88
2023-09-08T16:39:08.319Z,101361.81
2023-09-08T16:41:35.980Z,101362.34
2023-09-08T16:44:05.178Z,101368.13
2023-09-08T16:46:32.851Z,101364.50
2023-09-08T16:49:00.528Z,101365.69
2023-09-08T16:51:28.145Z,101362.78
2023-09-08T16:53:57.326Z,101365.03
2023-09-08T16:56:26.488Z,101365.91
2023-09-08T16:58:54.220Z,101359.03
2023-09-08T17:01:23.228Z,101368.66
2023-09-08T17:03:51.081Z,101365.66
2023-09-08T17:06:18.846Z,101367.22
2023-09-08T17:08:46.481Z,101364.59
2023-09-08T17:11:14.035Z,101356.97
2023-09-08T17:13:41.607Z,101360.94
2023-09-08T17:16:09.315Z,101357.94
2023-09-08T17:18:38.360Z,101364.97
2023-09-08T17:21:06.125Z,101359.84
2023-09-08T17:23:33.786Z,101356.09
2023-09-08T17:26:02.117Z,101362.28
2023-09-08T17:28:29.744Z,101366.28
2023-09-08T17:30:57.337Z,101366.75
2023-09-08T17:33:24.907Z,101366.91
2023-09-08T17:35:53.907Z,101363.16
2023-09-08T17:38:21.530Z,101364.84
2023-09-08T17:40:49.198Z,101366.50
2023-09-08T17:43:16.801Z,101368.31
2023-09-08T17:45:47.030Z,101371.78
2023-09-08T17:48:14.992Z,101373.47
2023-09-08T17:50:42.660Z,101371.31
2023-09-08T17:53:11.678Z,101370.47
2023-09-08T17:55:39.262Z,101378.94
2023-09-08T17:58:06.933Z,101376.69
2023-09-08T18:00:34.547Z,101375.50
2023-09-08T18:03:02.259Z,101371.03
2023-09-08T18:05:30.046Z,101370.69
2023-09-08T18:07:57.560Z,101371.13
2023-09-08T18:10:26.869Z,101366.91
2023-09-08T18:12:54.525Z,101364.28
2023-09-08T18:15:22.120Z,101368.78
2023-09-08T18:17:49.753Z,101366.72
2023-09-08T18:20:17.700Z,101371.25
2023-09-08T18:22:45.287Z,101373.50
2023-09-08T18:25:12.839Z,101371.47
2023-09-08T18:27:41.782Z,101368.28
2023-09-08T18:30:11.175Z,101368.91
2023-09-08T18:32:38.887Z,101380.50
2023-09-08T18:35:07.309Z,101372.38
2023-09-08T18:37:34.905Z,101381.69
2023-09-08T18:40:04.107Z,101387.22
2023-09-08T18:42:31.720Z,101379.34
2023-09-08T18:45:00.704Z,101384.03
2023-09-08T18:47:28.778Z,101378.09
2023-09-08T18:49:56.394Z,101382.50
2023-09-08T18:52:23.965Z,101386.38
2023-09-08T18:54:51.630Z,101391.34
2023-09-08T18:57:19.238Z,101387.56
2023-09-08T18:59:46.794Z,101399.31
2023-09-08T19:02:15.780Z,101393.34
2023-09-08T19:04:43.539Z,101392.56
2023-09-08T19:07:11.182Z,101388.22
2023-09-08T19:09:39.012Z,101392.06
2023-09-08T19:12:07.042Z,101391.28
2023-09-08T19:14:34.658Z,101391.84
2023-09-08T19:17:03.745Z,101400.84
2023-09-08T19:19:32.794Z,101403.63
2023-09-08T19:22:00.387Z,101404.75
2023-09-08T19:24:28.051Z,101398.22
2023-09-08T19:26:55.687Z,101390.63
2023-09-08T19:29:24.438Z,101395.00
2023-09-08T19:31:52.093Z,101388.75
2023-09-08T19:34:19.695Z,101391.50
2023-09-08T19:36:48.629Z,101394.53
2023-09-08T19:39:16.293Z,101393.19
2023-09-08T19:41:43.914Z,101392.94
2023-09-08T19:44:11.517Z,101384.22
2023-09-08T19:46:39.121Z,101393.22
2023-09-08T19:49:06.882Z,101384.28
2023-09-08T19:51:34.539Z,101385.09
2023-09-08T19:54:03.838Z,101391.63
2023-09-08T19:56:31.444Z,101388.66
2023-09-08T19:59:01.080Z,101391.66
2023-09-08T20:01:30.534Z,101383.78
2023-09-08T20:03:58.217Z,101386.50
2023-09-08T20:06:25.891Z,101381.88
2023-09-08T20:08:53.536Z,101385.41
2023-09-08T20:11:22.519Z,101384.63
2023-09-08T20:13:50.188Z,101385.66
2023-09-08T20:16:17.817Z,101383.50
2023-09-08T20:18:45.520Z,101388.38
2023-09-08T20:21:13.166Z,101387.03
2023-09-08T20:23:41.089Z,101386.47
2023-09-08T20:26:09.738Z,101386.44
2023-09-08T20:28:38.754Z,101385.91
2023-09-08T20:31:16.194Z,101378.81
2023-09-08T20:33:45.806Z,101377.16
2023-09-08T20:36:13.526Z,101389.13
2023-09-08T20:38:41.604Z,101379.84
2023-09-08T20:41:11.398Z,101386.94
2023-09-08T20:43:40.564Z,101378.19
2023-09-08T20:46:08.446Z,101379.81
2023-09-08T20:48:38.734Z,101379.22
2023-09-08T20:51:09.099Z,101381.94
2023-09-08T20:53:38.839Z,101379.50
2023-09-08T20:56:08.357Z,101374.59
2023-09-08T20:58:36.031Z,101384.09
2023-09-08T21:01:05.532Z,101387.34
2023-09-08T21:03:33.473Z,101374.84
2023-09-08T21:06:01.245Z,101372.13
2023-09-08T21:08:31.444Z,101376.75
2023-09-08T21:10:59.567Z,101377.03
2023-09-08T21:13:27.146Z,101374.56
2023-09-08T21:15:54.787Z,101366.09
2023-09-08T21:18:23.782Z,101367.75
2023-09-08T21:20:51.446Z,101361.72
2023-09-08T21:23:19.393Z,101360.59
2023-09-08T21:25:46.960Z,101362.16
2023-09-08T21:28:14.567Z,101369.22
2023-09-08T21:30:42.174Z,101366.47
2023-09-08T21:33:10.301Z,101368.63
2023-09-08T21:35:39.998Z,101364.78
2023-09-08T21:38:07.614Z,101365.91
2023-09-08T21:40:35.191Z,101362.31
2023-09-08T21:43:03.829Z,101366.88
2023-09-08T21:45:31.475Z,101370.09
2023-09-08T21:47:59.184Z,101369.53
2023-09-08T21:50:26.811Z,101362.16
2023-09-08T21:52:55.844Z,101366.22
2023-09-08T21:55:23.451Z,101365.13
2023-09-08T21:57:51.014Z,101365.88
2023-09-08T22:00:21.997Z,101363.66
2023-09-08T22:02:50.281Z,101363.88
2023-09-08T22:05:18.238Z,101362.47
2023-09-08T22:07:45.919Z,101366.44
2023-09-08T22:10:14.990Z,101360.72
2023-09-08T22:12:42.817Z,101361.03
2023-09-08T22:15:11.205Z,101357.13
2023-09-08T22:17:38.888Z,101361.47
2023-09-08T22:20:13.909Z,101361.19
2023-09-08T22:22:41.786Z,101362.22
2023-09-08T22:25:11.637Z,101363.56
2023-09-08T22:27:40.704Z,101355.94
2023-09-08T22:30:09.419Z,101358.34
2023-09-08T22:32:38.298Z,101362.88
2023-09-08T22:35:06.840Z,101362.56
2023-09-08T22:37:36.581Z,101357.34
2023-09-08T22:40:07.321Z,101351.31
2023-09-08T22:42:34.966Z,101355.72
2023-09-08T22:45:05.989Z,101352.63
2023-09-08T22:47:33.715Z,101353.47
2023-09-08T22:50:05.086Z,101359.41
2023-09-08T22:52:32.675Z,101353.91
2023-09-08T22:55:12.735Z,101356.59
2023-09-08T22:57:49.137Z,101349.28
2023-09-08T23:00:20.045Z,101351.19
2023-09-08T23:02:48.228Z,101353.34
2023-09-08T23:05:16.310Z,101358.75
2023-09-08T23:07:44.366Z,101353.09
2023-09-08T23:10:12.332Z,101351.91
2023-09-08T23:12:40.278Z,101355.13
2023-09-08T23:15:10.077Z,101346.19
2023-09-08T23:17:39.445Z,101351.09
2023-09-08T23:20:09.021Z,101345.59
2023-09-08T23:22:37.493Z,101346.03
2023-09-08T23:25:06.812Z,101351.47
2023-09-08T23:27:34.517Z,101341.72
2023-09-08T23:30:02.962Z,101337.22
2023-09-08T23:32:30.670Z,101342.91
2023-09-08T23:35:00.725Z,101343.66
2023-09-08T23:37:28.488Z,101351.22
2023-09-08T23:39:56.127Z,101346.81
2023-09-08T23:42:23.714Z,101342.41
2023-09-08T23:44:51.333Z,101344.53
2023-09-08T23:47:19.045Z,101340.19
2023-09-08T23:49:46.634Z,101337.94
2023-09-08T23:52:15.543Z,101342.91
2023-09-08T23:54:43.191Z,101343.88
2023-09-08T23:57:10.900Z,101331.41
2023-09-08T23:59:38.691Z,101342.75
